Time;durP1;ratioP1;P1;durP2;ratioP2;P2;SDS_P1;SDS_P2;PMS_P1;PMS_P2;Temp;Humidity;BMP_temperature;BMP_pressure;BME280_temperature;BME280_humidity;BME280_pressure;Samples;Min_cycle;Max_cycle;Signal;HPM_P1;HPM_P2
2021/03/02 00:00:13;;;;;;;51.57;24.97;;;8.20;99.90;;;;;;4901181;29;20196;-93
2021/03/02 00:02:43;;;;;;;51.03;24.57;;;8.10;99.90;;;;;;4901494;29;20209;-93
2021/03/02 00:05:26;;;;;;;52.37;24.47;;;8.10;99.90;;;;;;4904079;29;20181;-92
2021/03/02 00:07:55;;;;;;;56.13;24.87;;;8.20;99.90;;;;;;4911625;29;20190;-93
2021/03/02 00:10:29;;;;;;;53.00;25.57;;;8.30;99.00;;;;;;4912633;29;20225;-93
2021/03/02 00:12:55;;;;;;;55.63;24.90;;;8.10;99.30;;;;;;4896765;29;20256;-93
2021/03/02 00:15:23;;;;;;;48.80;22.83;;;7.90;99.80;;;;;;4888513;29;20198;-93
2021/03/02 00:17:59;;;;;;;51.67;24.00;;;7.70;99.90;;;;;;4901744;29;20190;-93
2021/03/02 00:20:25;;;;;;;49.17;23.53;;;7.70;99.90;;;;;;4901417;29;20658;-94
2021/03/02 00:23:07;;;;;;;54.40;24.70;;;7.50;99.90;;;;;;4894690;29;20189;-93
2021/03/02 00:25:44;;;;;;;57.83;25.07;;;7.50;99.90;;;;;;4899506;29;20184;-93
2021/03/02 00:28:13;;;;;;;49.80;24.07;;;7.50;99.90;;;;;;4883050;29;20527;-93
2021/03/02 00:30:41;;;;;;;57.87;25.40;;;7.60;99.90;;;;;;4884576;29;20226;-93
2021/03/02 00:33:11;;;;;;;51.53;24.53;;;7.50;99.90;;;;;;4901132;29;20186;-93
2021/03/02 00:35:50;;;;;;;;;;;;;;;;;;;;;
2021/03/02 00:38:23;;;;;;;52.03;25.10;;;7.30;99.90;;;;;;4905446;29;20185;-93
2021/03/02 00:40:51;;;;;;;58.43;25.07;;;7.30;99.90;;;;;;4893395;29;20290;-92
2021/03/02 00:43:19;;;;;;;54.93;23.97;;;7.50;99.90;;;;;;4885652;29;20190;-92
2021/03/02 00:45:56;;;;;;;50.13;23.03;;;7.40;99.90;;;;;;4893809;29;20714;-92
2021/03/02 00:48:25;;;;;;;55.77;23.37;;;7.30;99.90;;;;;;4904120;29;20205;-93
2021/03/02 00:50:53;;;;;;;47.97;23.47;;;7.20;99.90;;;;;;4892396;29;20213;-92
2021/03/02 00:53:23;;;;;;;51.07;24.00;;;7.00;99.90;;;;;;4881565;29;20240;-92
2021/03/02 00:55:49;;;;;;;48.50;23.03;;;6.90;99.90;;;;;;4889651;29;20634;-93
2021/03/02 00:58:22;;;;;;;54.37;24.43;;;6.80;99.90;;;;;;4900053;29;20189;-93
2021/03/02 01:00:55;;;;;;;52.57;24.73;;;6.80;99.90;;;;;;4892323;29;20185;-93
2021/03/02 01:03:21;;;;;;;47.20;22.03;;;6.90;99.90;;;;;;4881325;29;20663;-93
2021/03/02 01:05:47;;;;;;;52.57;23.83;;;6.80;99.90;;;;;;4882947;29;20189;-94
2021/03/02 01:08:25;;;;;;;52.83;23.17;;;6.80;99.90;;;;;;4881087;29;20269;-93
2021/03/02 01:10:56;;;;;;;53.50;24.27;;;6.80;99.90;;;;;;4881384;29;20214;-93
2021/03/02 01:13:29;;;;;;;56.70;24.17;;;6.90;99.90;;;;;;4881304;29;20209;-93
2021/03/02 01:16:02;;;;;;;49.47;22.50;;;7.00;99.90;;;;;;4890045;29;20630;-93
2021/03/02 01:18:33;;;;;;;51.00;23.60;;;6.90;99.90;;;;;;4884551;29;20717;-93
2021/03/02 01:20:59;;;;;;;48.20;22.70;;;6.80;99.90;;;;;;4895422;29;20182;-93
2021/03/02 01:23:26;;;;;;;53.00;23.60;;;6.50;99.90;;;;;;4904673;29;20241;-93
2021/03/02 01:25:55;;;;;;;55.03;23.40;;;6.50;99.90;;;;;;4893523;29;20227;-93
2021/03/02 01:28:24;;;;;;;56.47;23.47;;;6.50;99.90;;;;;;4884856;29;20201;-93
2021/03/02 01:30:52;;;;;;;48.63;23.23;;;6.60;99.90;;;;;;4893474;29;20220;-93
2021/03/02 01:33:27;;;;;;;57.33;24.90;;;6.60;99.90;;;;;;4902688;29;20173;-92
2021/03/02 01:35:53;;;;;;;52.90;22.87;;;6.80;99.90;;;;;;4902677;29;20213;-93
2021/03/02 01:38:19;;;;;;;46.13;23.37;;;6.80;99.90;;;;;;4902826;29;20223;-93
2021/03/02 01:40:46;;;;;;;49.80;22.83;;;6.70;99.90;;;;;;4902690;29;20271;-93
2021/03/02 01:43:15;;;;;;;55.53;25.50;;;6.60;99.90;;;;;;4902478;29;20196;-93
2021/03/02 01:45:41;;;;;;;54.50;24.03;;;6.70;99.90;;;;;;4900959;29;20189;-93
2021/03/02 01:48:12;;;;;;;57.90;22.17;;;6.50;99.90;;;;;;4879490;29;720953;-93
2021/03/02 01:50:48;;;;;;;;;;;;;;;;;;;;;
2021/03/02 01:53:24;;;;;;;56.37;22.33;;;6.40;99.90;;;;;;4902566;29;20183;-92
2021/03/02 01:55:52;;;;;;;59.47;24.80;;;6.50;99.90;;;;;;4890724;29;20181;-93
2021/03/02 01:58:22;;;;;;;51.47;22.43;;;6.40;99.90;;;;;;4903734;29;20181;-94
2021/03/02 02:00:51;;;;;;;47.20;21.90;;;6.40;99.90;;;;;;4899309;29;20554;-94
2021/03/02 02:03:29;;;;;;;52.60;23.13;;;6.20;99.90;;;;;;4903330;29;20201;-93
2021/03/02 02:06:06;;;;;;;53.60;23.53;;;6.20;99.90;;;;;;4901958;29;20181;-93
2021/03/02 02:09:02;;;;;;;48.20;22.03;;;6.20;99.90;;;;;;4904386;29;20191;-92
2021/03/02 02:11:51;;;;;;;51.70;21.63;;;6.20;99.90;;;;;;4883338;29;20260;-93
2021/03/02 02:14:27;;;;;;;51.90;22.80;;;6.10;99.90;;;;;;4895119;29;20195;-93
2021/03/02 02:16:56;;;;;;;48.27;22.17;;;6.20;99.90;;;;;;4906842;29;20199;-93
2021/03/02 02:19:46;;;;;;;53.40;23.30;;;6.30;99.90;;;;;;4905945;29;20192;-93
2021/03/02 02:22:38;;;;;;;50.40;22.63;;;6.20;99.90;;;;;;4904995;29;20645;-93
2021/03/02 02:25:22;;;;;;;51.90;21.30;;;6.00;99.90;;;;;;4896010;29;20216;-93
2021/03/02 02:27:59;;;;;;;47.43;22.67;;;6.10;99.90;;;;;;4897257;29;20180;-93
2021/03/02 02:30:28;;;;;;;56.80;22.93;;;6.30;99.90;;;;;;4885846;29;20244;-92
2021/03/02 02:32:55;;;;;;;51.47;23.53;;;6.10;99.90;;;;;;4903299;29;20184;-94
2021/03/02 02:35:28;;;;;;;51.00;22.83;;;6.00;99.90;;;;;;4890775;29;20639;-93
2021/03/02 02:38:02;;;;;;;50.17;23.30;;;6.00;99.90;;;;;;4902646;29;20185;-93
2021/03/02 02:40:28;;;;;;;48.10;22.00;;;5.80;99.90;;;;;;4903106;29;20551;-93
2021/03/02 02:43:04;;;;;;;53.63;23.03;;;5.80;99.90;;;;;;4902829;29;20212;-92
2021/03/02 02:45:30;;;;;;;48.53;22.33;;;5.90;99.90;;;;;;4896379;29;20665;-93
2021/03/02 02:47:59;;;;;;;49.40;23.23;;;6.00;99.90;;;;;;4884534;29;20562;-93
2021/03/02 02:50:26;;;;;;;54.30;23.27;;;5.90;99.90;;;;;;4899345;29;20555;-94
2021/03/02 02:52:52;;;;;;;47.47;22.03;;;5.80;99.90;;;;;;4918384;29;20709;-93
2021/03/02 02:55:29;;;;;;;53.40;23.90;;;5.80;99.90;;;;;;4917699;29;20525;-93
2021/03/02 02:57:55;;;;;;;50.33;22.53;;;5.80;99.90;;;;;;4918162;29;20176;-93
2021/03/02 03:00:24;;;;;;;50.17;23.17;;;5.80;99.90;;;;;;4902388;29;20287;-92
2021/03/02 03:03:01;;;;;;;51.97;22.20;;;5.70;99.90;;;;;;4902341;29;20196;-92
2021/03/02 03:05:34;;;;;;;52.60;23.23;;;5.70;99.90;;;;;;4899727;29;20592;-93
2021/03/02 03:08:12;;;;;;;47.70;22.33;;;5.60;99.90;;;;;;4883949;29;20177;-94
2021/03/02 03:10:41;;;;;;;47.37;22.63;;;5.60;99.90;;;;;;4901056;29;20228;-93
2021/03/02 03:13:09;;;;;;;53.50;22.37;;;5.70;99.90;;;;;;4902431;29;20184;-93
2021/03/02 03:15:41;;;;;;;45.07;21.63;;;5.60;99.90;;;;;;4902321;29;20195;-93
2021/03/02 03:18:08;;;;;;;58.03;23.13;;;5.60;99.90;;;;;;4901911;29;20181;-93
2021/03/02 03:20:35;;;;;;;51.00;21.80;;;5.60;99.90;;;;;;4901415;29;20728;-93
2021/03/02 03:23:04;;;;;;;51.27;22.53;;;5.60;99.90;;;;;;4901915;29;20177;-93
2021/03/02 03:25:39;;;;;;;51.70;22.77;;;5.60;99.90;;;;;;4887044;29;20181;-93
2021/03/02 03:28:10;;;;;;;51.23;22.37;;;5.50;99.90;;;;;;4883142;29;20212;-94
2021/03/02 03:30:39;;;;;;;58.03;24.00;;;5.50;99.90;;;;;;4898624;29;20212;-94
2021/03/02 03:33:10;;;;;;;59.63;23.47;;;5.60;99.90;;;;;;4886290;29;20265;-93
2021/03/02 03:35:41;;;;;;;57.83;23.73;;;5.50;99.90;;;;;;4883721;29;20567;-93
2021/03/02 03:38:07;;;;;;;48.97;22.50;;;5.60;99.90;;;;;;4891777;29;20541;-93
2021/03/02 03:40:40;;;;;;;49.90;23.30;;;5.50;99.90;;;;;;4901840;29;20216;-93
2021/03/02 03:43:13;;;;;;;54.27;22.90;;;5.60;99.90;;;;;;4900830;29;20648;-92
2021/03/02 03:45:41;;;;;;;56.33;22.43;;;5.50;99.90;;;;;;4901881;29;20181;-93
2021/03/02 03:48:11;;;;;;;53.50;22.37;;;5.50;99.90;;;;;;4900630;29;20196;-93
2021/03/02 03:50:46;;;;;;;48.83;22.60;;;5.50;99.90;;;;;;4917612;29;20212;-94
2021/03/02 03:53:16;;;;;;;50.30;22.77;;;5.60;99.90;;;;;;4917163;29;20176;-94
2021/03/02 03:55:44;;;;;;;52.60;22.63;;;5.50;99.90;;;;;;4917609;29;20188;-93
2021/03/02 03:58:20;;;;;;;51.27;22.73;;;5.80;99.90;;;;;;4916805;29;20177;-93
2021/03/02 04:00:52;;;;;;;52.87;23.67;;;5.90;99.90;;;;;;4917244;29;20676;-93
2021/03/02 04:03:22;;;;;;;47.13;21.60;;;5.60;99.90;;;;;;4916544;29;20201;-93
2021/03/02 04:05:50;;;;;;;51.77;21.23;;;5.60;99.90;;;;;;4901442;29;20191;-93
2021/03/02 04:08:16;;;;;;;50.87;22.77;;;5.40;99.90;;;;;;4899002;29;20177;-93
2021/03/02 04:10:43;;;;;;;54.57;22.00;;;5.40;99.90;;;;;;4883248;29;20634;-93
2021/03/02 04:13:47;;;;;;;;;;;;;;;;;;;;;
2021/03/02 04:16:35;;;;;;;;;;;;;;;;;;;;;
2021/03/02 04:19:10;;;;;;;46.77;21.90;;;5.30;99.90;;;;;;4918273;29;20180;-91
2021/03/02 04:21:44;;;;;;;48.03;21.77;;;5.20;99.90;;;;;;4921222;29;20195;-92
2021/03/02 04:24:22;;;;;;;51.77;22.80;;;5.20;99.90;;;;;;4924239;29;20187;-92
2021/03/02 04:27:14;;;;;;;61.43;22.77;;;5.20;99.90;;;;;;4920331;29;20176;-93
2021/03/02 04:29:55;;;;;;;48.20;21.83;;;5.20;99.90;;;;;;4900884;29;20248;-93
2021/03/02 04:32:35;;;;;;;53.37;21.20;;;5.20;99.90;;;;;;4882094;29;20189;-93
2021/03/02 04:35:11;;;;;;;;;;;;;;;;;;;;;
2021/03/02 04:37:50;;;;;;;48.40;21.33;;;5.10;99.90;;;;;;4917673;29;20181;-93
2021/03/02 04:40:29;;;;;;;;;;;;;;;;;;;;;
2021/03/02 04:43:05;;;;;;;48.57;21.93;;;5.20;99.90;;;;;;4898769;29;20176;-94
2021/03/02 04:45:58;;;;;;;;;;;;;;;;;;;;;
2021/03/02 04:48:26;;;;;;;51.80;22.07;;;5.20;99.90;;;;;;4916948;29;20181;-93
2021/03/02 04:51:06;;;;;;;;;;;;;;;;;;;;;
2021/03/02 04:53:47;;;;;;;43.73;20.80;;;5.10;99.90;;;;;;4920043;29;20184;-94
2021/03/02 04:56:13;;;;;;;48.37;21.47;;;5.10;99.90;;;;;;4902717;29;20184;-93
2021/03/02 04:58:44;;;;;;;54.90;22.13;;;5.00;99.90;;;;;;4900104;29;20275;-95
2021/03/02 05:01:13;;;;;;;48.97;21.87;;;5.00;99.90;;;;;;4884236;29;20268;-95
2021/03/02 05:03:41;;;;;;;57.23;23.47;;;5.00;99.90;;;;;;4886172;29;20197;-93
2021/03/02 05:06:08;;;;;;;46.87;19.97;;;5.10;99.90;;;;;;4904228;29;20180;-94
2021/03/02 05:08:39;;;;;;;51.00;20.77;;;5.00;99.90;;;;;;4903578;29;20184;-93
2021/03/02 05:11:05;;;;;;;45.43;20.93;;;5.00;99.90;;;;;;4885619;29;20224;-93
2021/03/02 05:13:35;;;;;;;52.77;23.60;;;4.90;99.90;;;;;;4886981;29;20200;-94
2021/03/02 05:16:01;;;;;;;54.97;23.97;;;4.80;99.90;;;;;;4897398;29;20224;-93
2021/03/02 05:18:38;;;;;;;50.13;21.40;;;4.70;99.90;;;;;;4902360;29;20571;-93
2021/03/02 05:21:04;;;;;;;53.03;21.40;;;4.80;99.90;;;;;;4885445;29;20185;-93
2021/03/02 05:23:30;;;;;;;52.00;22.63;;;4.70;99.90;;;;;;4886898;29;20185;-93
2021/03/02 05:25:55;;;;;;;53.27;23.70;;;4.80;99.90;;;;;;4904121;29;20708;-93
2021/03/02 05:28:21;;;;;;;55.83;23.90;;;4.70;99.90;;;;;;4903568;29;20212;-92
2021/03/02 05:30:56;;;;;;;44.80;22.10;;;4.80;99.90;;;;;;4887707;29;20228;-93
2021/03/02 05:33:33;;;;;;;53.13;23.40;;;4.70;99.90;;;;;;4904257;29;20188;-92
2021/03/02 05:36:03;;;;;;;50.80;22.43;;;4.60;99.90;;;;;;4892838;29;20275;-93
2021/03/02 05:38:39;;;;;;;50.10;22.40;;;4.80;99.90;;;;;;4902032;29;20180;-94
2021/03/02 05:41:15;;;;;;;50.53;22.87;;;4.80;99.90;;;;;;4903795;29;20657;-94
2021/03/02 05:43:48;;;;;;;52.53;22.00;;;4.80;99.90;;;;;;4902666;29;20176;-94
2021/03/02 05:46:29;;;;;;;52.17;23.50;;;4.80;99.90;;;;;;4903964;29;20704;-94
2021/03/02 05:48:55;;;;;;;55.17;23.73;;;4.70;99.90;;;;;;4903114;29;20675;-92
2021/03/02 05:51:22;;;;;;;51.00;23.03;;;4.70;99.90;;;;;;4902886;29;20753;-93
2021/03/02 05:53:49;;;;;;;49.13;21.63;;;4.70;99.90;;;;;;4919326;29;20187;-93
2021/03/02 05:56:31;;;;;;;;;;;;;;;;;;;;;
2021/03/02 05:59:33;;;;;;;;;;;;;;;;;;;;;
2021/03/02 06:02:02;;;;;;;51.77;20.93;;;4.70;99.90;;;;;;4908031;29;20181;-95
2021/03/02 06:04:30;;;;;;;48.37;23.37;;;4.60;99.90;;;;;;4898581;29;20189;-94
2021/03/02 06:07:14;;;;;;;53.40;22.27;;;4.50;99.90;;;;;;4899866;29;20191;-94
2021/03/02 06:10:01;;;;;;;;;;;;;;;;;;;;;
2021/03/02 06:13:02;;;;;;;55.73;22.53;;;4.60;99.90;;;;;;4918572;29;20227;-93
2021/03/02 06:15:33;;;;;;;56.13;24.37;;;4.50;99.90;;;;;;4894780;29;20192;-95
2021/03/02 06:19:13;;;;;;;;;;;;;;;;;;;;;
2021/03/02 06:22:06;;;;;;;;;;;;;;;;;;;;;
2021/03/02 06:28:27;;;;;;;;;;;;;;;;;;;;;
2021/03/02 06:31:13;;;;;;;;;;;;;;;;;;;;;
2021/03/02 06:33:44;;;;;;;49.50;21.73;;;4.50;99.90;;;;;;4922750;29;20237;-94
2021/03/02 06:36:18;;;;;;;57.03;22.73;;;4.60;99.90;;;;;;4913908;29;20195;-95
2021/03/02 06:38:56;;;;;;;49.80;21.70;;;4.70;99.90;;;;;;4924825;28;20291;-94
2021/03/02 06:41:40;;;;;;;56.57;23.03;;;4.70;99.90;;;;;;4897830;29;20196;-95
2021/03/02 06:44:16;;;;;;;51.50;21.27;;;4.60;99.90;;;;;;4904728;29;20555;-95
2021/03/02 06:46:42;;;;;;;55.37;23.43;;;4.60;99.90;;;;;;4918076;29;20220;-94
2021/03/02 06:49:08;;;;;;;52.90;22.27;;;4.70;99.90;;;;;;4899675;29;20193;-93
2021/03/02 06:51:36;;;;;;;54.53;23.70;;;4.70;99.90;;;;;;4890539;29;20217;-93
2021/03/02 06:54:33;;;;;;;50.10;22.73;;;4.80;99.90;;;;;;4906119;29;20208;-95
2021/03/02 06:57:32;;;;;;;48.47;23.57;;;4.90;99.90;;;;;;4918377;29;20221;-95
2021/03/02 07:17:12;;;;;;;;;;;;;;;;;;;;;
2021/03/02 07:19:55;;;;;;;;;;;;;;;;;;;;;
2021/03/02 07:22:42;;;;;;;;;;;;;;;;;;;;;
2021/03/02 07:26:13;;;;;;;52.90;21.13;;;5.20;99.90;;;;;;4911873;29;20207;-93
2021/03/02 07:28:39;;;;;;;47.43;21.60;;;5.30;99.90;;;;;;4915981;29;20220;-93
2021/03/02 07:31:09;;;;;;;49.27;21.70;;;5.40;99.90;;;;;;4897165;29;20303;-93
2021/03/02 07:33:42;;;;;;;51.37;21.03;;;5.50;99.90;;;;;;4898067;29;20220;-93
2021/03/02 07:36:20;;;;;;;55.17;22.37;;;5.60;99.90;;;;;;4912991;29;20713;-93
2021/03/02 07:39:19;;;;;;;45.13;20.60;;;5.40;99.90;;;;;;4910948;29;20219;-93
2021/03/02 07:41:52;;;;;;;47.50;22.17;;;5.40;99.90;;;;;;4896848;29;20209;-94
2021/03/02 07:44:19;;;;;;;43.97;21.87;;;5.50;99.90;;;;;;4901605;29;20184;-93
2021/03/02 07:46:50;;;;;;;50.47;21.50;;;5.50;99.90;;;;;;4898937;29;20204;-93
2021/03/02 07:49:24;;;;;;;49.07;21.53;;;5.60;99.90;;;;;;4899612;29;20279;-94
2021/03/02 07:51:59;;;;;;;53.17;22.43;;;5.80;99.90;;;;;;4898527;29;20184;-94
2021/03/02 07:54:27;;;;;;;46.40;21.33;;;5.80;99.90;;;;;;4900711;29;20184;-93
2021/03/02 07:57:49;;;;;;;50.73;22.27;;;5.90;99.90;;;;;;4900498;29;20173;-94
2021/03/02 08:00:15;;;;;;;44.10;20.53;;;6.10;99.90;;;;;;4926714;29;20200;-93
2021/03/02 08:02:43;;;;;;;42.23;20.27;;;6.30;99.90;;;;;;4905012;29;20215;-93
2021/03/02 08:05:29;;;;;;;46.80;20.30;;;6.20;99.90;;;;;;4911641;29;20188;-94
2021/03/02 08:08:24;;;;;;;35.53;17.87;;;6.50;99.90;;;;;;4898665;29;20180;-94
2021/03/02 08:10:54;;;;;;;36.83;18.43;;;6.70;99.90;;;;;;4898531;29;20224;-93
2021/03/02 08:13:42;;;;;;;45.30;19.07;;;6.80;99.90;;;;;;4898425;29;20227;-94
2021/03/02 08:16:17;;;;;;;37.77;18.03;;;6.90;99.90;;;;;;4896327;29;20199;-94
2021/03/02 08:18:46;;;;;;;38.47;18.87;;;6.80;99.90;;;;;;4897596;29;20192;-93
2021/03/02 08:21:22;;;;;;;38.33;19.93;;;6.90;99.90;;;;;;4900050;29;20200;-93
2021/03/02 08:24:01;;;;;;;41.67;20.00;;;7.00;99.90;;;;;;4896032;29;20192;-93
2021/03/02 08:26:31;;;;;;;40.50;19.07;;;7.20;99.90;;;;;;4897641;29;20595;-94
2021/03/02 08:29:16;;;;;;;41.63;18.63;;;7.40;99.90;;;;;;4899701;29;20188;-92
2021/03/02 08:32:32;;;;;;;;;;;;;;;;;;;;;
2021/03/02 08:35:23;;;;;;;43.97;18.63;;;7.30;99.90;;;;;;4901693;29;20187;-93
2021/03/02 08:37:55;;;;;;;40.37;17.97;;;7.40;99.90;;;;;;4903869;29;20196;-94
2021/03/02 08:40:42;;;;;;;40.73;18.20;;;7.60;99.90;;;;;;4899445;29;20192;-94
2021/03/02 08:43:20;;;;;;;;;;;;;;;;;;;;;
2021/03/02 08:49:15;;;;;;;31.77;16.33;;;8.10;99.90;;;;;;5048573;23;20648;-91
2021/03/02 08:51:41;;;;;;;29.30;15.47;;;8.10;99.90;;;;;;4918605;29;20587;-91
2021/03/02 08:54:07;;;;;;;30.40;16.90;;;8.20;99.90;;;;;;4918867;29;20189;-92
2021/03/02 08:56:41;;;;;;;32.60;15.27;;;8.30;99.90;;;;;;4918580;29;20192;-92
2021/03/02 08:59:12;;;;;;;32.43;16.17;;;8.50;99.90;;;;;;4934354;29;20181;-92
2021/03/02 09:01:43;;;;;;;31.37;15.83;;;8.50;99.90;;;;;;4916329;29;20206;-91
2021/03/02 09:04:14;;;;;;;35.60;16.87;;;8.70;99.90;;;;;;4927484;29;20191;-90
2021/03/02 09:06:46;;;;;;;33.20;16.67;;;8.80;99.90;;;;;;4916995;29;20192;-92
2021/03/02 09:09:15;;;;;;;28.23;15.27;;;8.80;99.90;;;;;;4914513;29;20196;-91
2021/03/02 09:11:42;;;;;;;31.10;15.50;;;8.80;99.90;;;;;;4914760;29;20318;-91
2021/03/02 09:14:25;;;;;;;32.43;16.50;;;9.00;99.90;;;;;;4911479;29;20191;-92
2021/03/02 09:16:58;;;;;;;26.83;14.97;;;9.00;99.90;;;;;;4912675;29;20702;-91
2021/03/02 09:19:40;;;;;;;25.47;14.67;;;9.10;99.90;;;;;;4932110;29;20735;-92
2021/03/02 09:22:17;;;;;;;25.77;13.53;;;9.30;99.90;;;;;;4919082;29;20192;-92
2021/03/02 09:24:56;;;;;;;29.57;15.33;;;9.40;99.90;;;;;;4917081;29;20194;-91
2021/03/02 09:27:32;;;;;;;29.83;14.27;;;9.50;99.90;;;;;;4920148;29;20234;-92
2021/03/02 09:29:59;;;;;;;27.57;14.77;;;9.60;99.90;;;;;;4907288;29;20704;-92
2021/03/02 09:32:28;;;;;;;25.43;12.80;;;9.80;98.50;;;;;;4918060;29;20645;-91
2021/03/02 09:34:59;;;;;;;22.80;12.20;;;10.10;96.70;;;;;;4917537;29;20265;-91
2021/03/02 09:37:26;;;;;;;23.87;11.90;;;10.40;95.00;;;;;;4920196;29;20217;-92
2021/03/02 09:40:11;;;;;;;22.50;11.20;;;10.60;94.00;;;;;;4916612;29;20257;-91
2021/03/02 09:42:39;;;;;;;24.37;12.00;;;10.60;93.80;;;;;;4917770;29;20196;-92
2021/03/02 09:45:14;;;;;;;25.30;12.17;;;10.80;93.20;;;;;;4919696;29;20180;-91
2021/03/02 09:47:44;;;;;;;21.00;12.13;;;10.80;93.10;;;;;;4918799;29;20197;-92
2021/03/02 09:50:14;;;;;;;24.33;12.07;;;10.70;93.30;;;;;;4917586;29;20211;-92
2021/03/02 09:52:45;;;;;;;25.70;12.40;;;10.80;93.20;;;;;;4922533;29;20216;-91
2021/03/02 09:55:16;;;;;;;22.07;12.00;;;10.90;93.00;;;;;;4920777;29;20644;-92
2021/03/02 09:57:47;;;;;;;22.43;11.93;;;11.10;92.20;;;;;;4925036;29;20199;-91
2021/03/02 10:00:14;;;;;;;22.20;11.50;;;11.30;92.00;;;;;;4927043;29;20214;-92
2021/03/02 10:03:04;;;;;;;19.73;12.23;;;11.20;92.10;;;;;;4911643;29;20239;-91
2021/03/02 10:05:39;;;;;;;26.07;13.10;;;11.20;92.10;;;;;;4933320;29;20622;-89
2021/03/02 10:08:21;;;;;;;21.30;12.43;;;11.50;91.40;;;;;;4922026;29;20199;-88
2021/03/02 16:42:13;;;;;;;;;;;;;;;;;;;;;
2021/03/02 16:45:26;;;;;;;;;;;;;;;;;;;;;
2021/03/02 16:55:38;;;;;;;33.63;15.23;;;23.80;43.90;;;;;;4855157;29;20177;-94
2021/03/02 16:58:30;;;;;;;29.80;14.80;;;23.70;44.40;;;;;;4847345;29;20263;-95
2021/03/02 17:01:59;;;;;;;29.73;15.63;;;23.60;44.10;;;;;;4868330;29;20257;-94
2021/03/02 17:04:57;;;;;;;35.70;15.23;;;23.30;45.00;;;;;;4812979;29;20367;-94
2021/03/02 17:08:13;;;;;;;;;;;;;;;;;;;;;
2021/03/02 17:11:05;;;;;;;37.67;15.43;;;22.90;45.70;;;;;;4852912;29;20198;-94
2021/03/02 17:24:17;;;;;;;34.07;15.63;;;21.90;47.50;;;;;;4759136;30;20194;-93
2021/03/02 17:31:32;;;;;;;39.60;15.77;;;21.10;49.60;;;;;;4779489;30;20188;-93
2021/03/02 17:34:55;;;;;;;38.93;17.90;;;20.90;49.90;;;;;;4792379;29;20265;-93
2021/03/02 17:44:34;;;;;;;62.57;33.57;;;20.40;50.90;;;;;;4935480;29;20262;-93
2021/03/02 17:47:42;;;;;;;;;;;;;;;;;;;;;
2021/03/02 17:50:39;;;;;;;;;;;;;;;;;;;;;
